createdAt,value
2023-06-04T00:01:48.758Z,14.84
2023-06-04T00:04:34.820Z,14.85
2023-06-04T00:07:20.392Z,14.85
2023-06-04T00:10:09.537Z,14.87
2023-06-04T00:12:54.990Z,14.91
2023-06-04T00:15:40.948Z,14.90
2023-06-04T00:18:26.772Z,14.87
2023-06-04T00:21:12.057Z,14.83
2023-06-04T00:23:58.217Z,14.78
2023-06-04T00:26:44.067Z,14.71
2023-06-04T00:29:30.146Z,14.66
2023-06-04T00:32:15.939Z,14.59
2023-06-04T00:35:02.238Z,14.52
2023-06-04T00:37:47.976Z,14.44
2023-06-04T00:40:35.695Z,14.38
2023-06-04T00:43:21.118Z,14.35
2023-06-04T00:46:07.410Z,14.31
2023-06-04T00:48:53.521Z,14.26
2023-06-04T00:51:39.010Z,14.23
2023-06-04T00:54:25.226Z,14.22
2023-06-04T00:57:10.603Z,14.21
2023-06-04T00:59:56.325Z,14.19
2023-06-04T01:02:42.559Z,14.11
2023-06-04T01:05:32.967Z,13.98
2023-06-04T01:08:20.632Z,13.85
2023-06-04T01:11:06.670Z,13.72
2023-06-04T01:13:52.569Z,13.60
2023-06-04T01:16:51.593Z,13.48
2023-06-04T01:20:00.658Z,13.34
2023-06-04T01:23:01.201Z,13.22
2023-06-04T01:25:50.783Z,13.16
2023-06-04T01:28:36.934Z,13.07
2023-06-04T01:31:24.209Z,12.93
2023-06-04T01:34:09.708Z,12.87
2023-06-04T01:36:55.538Z,12.91
2023-06-04T01:39:41.716Z,12.98
2023-06-04T01:42:26.960Z,13.04
2023-06-04T01:45:12.435Z,13.09
2023-06-04T01:47:58.143Z,13.15
2023-06-04T01:50:43.606Z,13.20
2023-06-04T01:53:29.149Z,13.19
2023-06-04T01:56:15.503Z,13.17
2023-06-04T01:59:02.306Z,13.14
2023-06-04T02:01:48.028Z,13.14
2023-06-04T02:04:33.707Z,13.18
2023-06-04T02:07:21.542Z,13.19
2023-06-04T02:10:08.878Z,13.21
2023-06-04T02:12:57.000Z,13.23
2023-06-04T02:15:42.833Z,13.24
2023-06-04T02:18:29.024Z,13.25
2023-06-04T02:21:15.473Z,13.25
2023-06-04T02:24:01.120Z,13.27
2023-06-04T02:26:47.503Z,13.32
2023-06-04T02:29:33.492Z,13.36
2023-06-04T02:32:18.910Z,13.40
2023-06-04T02:35:05.032Z,13.43
2023-06-04T02:37:51.018Z,13.42
2023-06-04T02:40:37.230Z,13.36
2023-06-04T02:43:23.867Z,13.35
2023-06-04T02:46:09.504Z,13.36
2023-06-04T02:48:55.196Z,13.40
2023-06-04T02:51:49.569Z,13.44
2023-06-04T02:54:35.700Z,13.47
2023-06-04T02:57:23.021Z,13.47
2023-06-04T03:00:13.132Z,13.39
2023-06-04T03:03:02.533Z,13.61
2023-06-04T03:05:49.065Z,14.39
2023-06-04T03:08:34.437Z,15.33
2023-06-04T03:11:22.887Z,16.15
2023-06-04T03:14:08.695Z,16.83
2023-06-04T03:16:56.117Z,17.42
2023-06-04T03:19:43.091Z,17.84
2023-06-04T03:22:29.477Z,18.07
2023-06-04T03:25:15.134Z,18.41
2023-06-04T03:28:01.448Z,18.90
2023-06-04T03:30:47.139Z,19.48
2023-06-04T03:33:33.061Z,20.21
2023-06-04T03:36:20.044Z,20.90
2023-06-04T03:39:05.764Z,21.31
2023-06-04T03:41:51.813Z,21.62
2023-06-04T03:44:39.627Z,21.92
2023-06-04T03:47:26.376Z,22.24
2023-06-04T03:50:12.035Z,22.46
2023-06-04T03:52:57.779Z,22.77
2023-06-04T03:55:43.583Z,23.27
2023-06-04T03:58:29.798Z,23.70
2023-06-04T04:01:16.601Z,23.89
2023-06-04T04:04:02.142Z,24.11
2023-06-04T04:06:49.181Z,24.43
2023-06-04T04:09:35.647Z,24.89
2023-06-04T04:12:21.684Z,25.32
2023-06-04T04:15:09.631Z,25.70
2023-06-04T04:17:56.264Z,26.01
2023-06-04T04:20:43.396Z,26.18
2023-06-04T04:23:30.541Z,26.41
2023-06-04T04:26:18.027Z,26.77
2023-06-04T04:29:05.188Z,27.14
2023-06-04T04:31:54.470Z,27.40
2023-06-04T04:34:52.562Z,27.63
2023-06-04T04:37:39.802Z,27.99
2023-06-04T04:40:26.789Z,28.33
2023-06-04T04:43:13.395Z,28.69
2023-06-04T04:45:59.433Z,28.88
2023-06-04T04:48:45.364Z,28.96
2023-06-04T04:51:31.483Z,29.07
2023-06-04T04:54:17.033Z,29.14
2023-06-04T04:57:13.489Z,29.22
2023-06-04T05:00:01.277Z,29.22
2023-06-04T05:02:47.991Z,29.22
2023-06-04T05:05:34.304Z,29.19
2023-06-04T05:08:22.529Z,29.13
2023-06-04T05:11:11.671Z,29.17
2023-06-04T05:14:02.072Z,29.32
2023-06-04T05:16:51.664Z,29.46
2023-06-04T05:19:43.440Z,29.50
2023-06-04T05:22:33.370Z,29.48
2023-06-04T05:25:22.755Z,29.46
2023-06-04T05:28:14.408Z,29.51
2023-06-04T05:31:03.688Z,29.52
2023-06-04T05:33:54.429Z,29.54
2023-06-04T05:36:48.455Z,29.55
2023-06-04T05:39:39.521Z,29.70
2023-06-04T05:42:34.393Z,29.91
2023-06-04T05:45:23.449Z,29.99
2023-06-04T05:48:12.456Z,30.03
2023-06-04T05:51:01.694Z,29.83
2023-06-04T05:53:50.471Z,29.60
2023-06-04T05:56:39.456Z,29.62
2023-06-04T05:59:29.420Z,29.78
2023-06-04T06:02:19.063Z,29.76
2023-06-04T06:05:10.451Z,29.81
2023-06-04T06:15:49.830Z,30.71
2023-06-04T06:18:36.244Z,30.95
2023-06-04T06:21:22.179Z,31.22
2023-06-04T06:24:08.097Z,31.25
2023-06-04T06:26:54.294Z,31.12
2023-06-04T06:29:41.903Z,31.10
2023-06-04T06:32:28.367Z,31.15
2023-06-04T06:35:14.094Z,31.44
2023-06-04T06:37:59.892Z,31.66
2023-06-04T06:40:45.137Z,31.53
2023-06-04T06:43:31.008Z,31.29
2023-06-04T06:46:16.589Z,31.32
2023-06-04T06:49:02.099Z,31.29
2023-06-04T06:51:48.025Z,31.24
2023-06-04T06:54:33.604Z,31.21
2023-06-04T06:57:20.065Z,31.23
2023-06-04T07:00:07.110Z,31.26
2023-06-04T07:02:52.862Z,31.26
2023-06-04T07:05:38.945Z,31.36
2023-06-04T07:08:26.164Z,31.38
2023-06-04T07:11:14.483Z,31.18
2023-06-04T07:14:00.141Z,30.92
2023-06-04T07:16:45.983Z,30.69
2023-06-04T07:19:33.251Z,30.54
2023-06-04T07:22:18.777Z,30.21
2023-06-04T07:25:04.384Z,29.74
2023-06-04T07:27:51.726Z,29.09
2023-06-04T07:30:38.927Z,28.88
2023-06-04T07:33:27.032Z,28.86
2023-06-04T07:36:14.250Z,28.70
2023-06-04T07:39:00.340Z,28.31
2023-06-04T07:41:45.930Z,28.15
2023-06-04T07:44:31.459Z,28.02
2023-06-04T07:47:17.311Z,28.17
2023-06-04T07:50:03.717Z,28.49
2023-06-04T07:52:49.726Z,28.88
2023-06-04T07:55:36.358Z,29.17
2023-06-04T07:58:21.608Z,29.41
2023-06-04T08:01:07.632Z,29.51
2023-06-04T08:03:54.385Z,29.47
2023-06-04T08:06:40.838Z,29.40
2023-06-04T08:09:26.642Z,29.11
2023-06-04T08:12:12.400Z,28.58
2023-06-04T08:14:58.342Z,28.43
2023-06-04T08:17:44.478Z,28.48
2023-06-04T08:20:29.856Z,28.70
2023-06-04T08:23:15.313Z,29.02
2023-06-04T08:26:00.834Z,29.42
2023-06-04T08:28:50.178Z,29.42
2023-06-04T08:31:36.102Z,29.21
2023-06-04T08:34:21.766Z,29.27
2023-06-04T08:37:08.011Z,29.63
2023-06-04T08:39:54.182Z,29.95
2023-06-04T08:42:42.405Z,30.26
2023-06-04T08:45:28.192Z,30.55
2023-06-04T08:48:13.837Z,30.84
2023-06-04T08:50:59.399Z,31.16
2023-06-04T08:53:48.819Z,31.26
2023-06-04T08:56:35.376Z,30.81
2023-06-04T08:59:23.368Z,30.40
2023-06-04T09:02:09.476Z,30.26
2023-06-04T09:04:55.154Z,30.28
2023-06-04T09:07:43.865Z,30.36
2023-06-04T09:10:31.236Z,30.45
2023-06-04T09:13:17.174Z,30.51
2023-06-04T09:16:04.083Z,30.28
2023-06-04T09:18:49.643Z,30.11
2023-06-04T09:21:35.094Z,30.28
2023-06-04T09:24:22.078Z,30.30
2023-06-04T09:27:14.890Z,30.00
2023-06-04T09:30:01.350Z,29.97
2023-06-04T09:32:46.904Z,30.10
2023-06-04T09:35:32.765Z,30.20
2023-06-04T09:38:18.466Z,30.22
2023-06-04T09:41:07.785Z,30.27
2023-06-04T09:44:04.132Z,30.47
2023-06-04T09:46:56.897Z,30.73
2023-06-04T09:49:48.761Z,30.91
2023-06-04T09:52:36.081Z,30.98
2023-06-04T09:55:23.370Z,31.07
2023-06-04T09:58:08.792Z,31.07
2023-06-04T10:00:55.110Z,31.02
2023-06-04T10:03:40.608Z,30.96
2023-06-04T10:06:26.116Z,30.85
2023-06-04T10:09:12.301Z,30.69
2023-06-04T10:11:58.323Z,30.42
2023-06-04T10:15:00.265Z,30.21
2023-06-04T10:17:46.210Z,30.00
2023-06-04T10:20:33.772Z,29.94
2023-06-04T10:23:21.445Z,29.97
2023-06-04T10:26:07.541Z,29.86
2023-06-04T10:28:53.027Z,29.86
2023-06-04T10:31:38.780Z,29.90
2023-06-04T10:34:24.298Z,29.82
2023-06-04T10:37:22.979Z,29.64
2023-06-04T10:40:09.840Z,29.39
2023-06-04T10:42:55.170Z,28.93
2023-06-04T10:45:41.532Z,28.44
2023-06-04T10:48:27.387Z,27.86
2023-06-04T10:51:13.091Z,27.51
2023-06-04T10:53:59.275Z,27.26
2023-06-04T10:56:44.549Z,26.90
2023-06-04T10:59:30.103Z,26.58
2023-06-04T11:02:15.740Z,26.57
2023-06-04T11:05:10.932Z,26.62
2023-06-04T11:07:56.460Z,26.49
2023-06-04T11:10:43.716Z,26.24
2023-06-04T11:13:30.784Z,26.02
2023-06-04T11:16:20.743Z,25.72
2023-06-04T11:19:06.496Z,25.45
2023-06-04T11:21:52.094Z,25.41
2023-06-04T11:24:37.535Z,25.38
2023-06-04T11:27:35.658Z,25.48
2023-06-04T11:30:22.994Z,25.63
2023-06-04T11:33:08.865Z,25.71
2023-06-04T11:35:54.726Z,25.77
2023-06-04T11:38:40.348Z,25.79
2023-06-04T11:41:32.671Z,25.88
2023-06-04T11:44:21.757Z,26.16
2023-06-04T11:47:07.809Z,26.54
2023-06-04T11:49:57.259Z,26.88
2023-06-04T11:52:43.208Z,26.94
2023-06-04T11:55:29.128Z,26.77
2023-06-04T11:58:14.750Z,26.81
2023-06-04T12:01:00.943Z,26.91
2023-06-04T12:03:46.401Z,26.87
2023-06-04T12:06:32.327Z,26.53
2023-06-04T12:09:22.616Z,26.28
2023-06-04T12:12:08.826Z,26.16
2023-06-04T12:15:00.978Z,26.12
2023-06-04T12:17:53.489Z,26.18
2023-06-04T12:20:40.390Z,26.15
2023-06-04T12:23:26.332Z,26.03
2023-06-04T12:26:29.641Z,25.83
2023-06-04T12:29:15.990Z,25.70
2023-06-04T12:32:12.928Z,25.62
2023-06-04T12:34:58.997Z,25.72
2023-06-04T12:37:44.336Z,25.78
2023-06-04T12:40:30.615Z,25.82
2023-06-04T12:43:16.395Z,25.89
2023-06-04T12:46:02.205Z,25.91
2023-06-04T12:48:48.098Z,25.75
2023-06-04T12:51:33.466Z,25.58
2023-06-04T12:54:19.073Z,25.48
2023-06-04T12:57:04.628Z,25.43
2023-06-04T12:59:50.292Z,25.31
2023-06-04T13:02:37.110Z,25.19
2023-06-04T13:05:22.782Z,25.01
2023-06-04T13:08:10.145Z,24.91
2023-06-04T13:10:58.572Z,24.98
2023-06-04T13:13:47.452Z,25.12
2023-06-04T13:16:37.461Z,25.33
2023-06-04T13:19:27.945Z,25.44
2023-06-04T13:22:16.428Z,25.57
2023-06-04T13:25:05.121Z,25.63
2023-06-04T13:27:54.428Z,25.66
2023-06-04T13:30:43.538Z,25.60
2023-06-04T13:33:35.435Z,25.38
2023-06-04T13:36:24.255Z,25.15
2023-06-04T13:39:13.468Z,25.11
2023-06-04T13:42:03.436Z,25.14
2023-06-04T13:44:52.468Z,25.05
2023-06-04T13:47:41.414Z,24.87
2023-06-04T13:50:31.454Z,24.84
2023-06-04T13:53:21.558Z,24.88
2023-06-04T13:56:10.472Z,24.91
2023-06-04T13:58:58.433Z,25.01
2023-06-04T14:01:47.550Z,25.31
2023-06-04T14:04:36.971Z,25.52
2023-06-04T14:15:13.810Z,25.62
2023-06-04T14:17:59.620Z,25.70
2023-06-04T14:20:45.883Z,25.52
2023-06-04T14:23:32.138Z,25.36
2023-06-04T14:26:19.080Z,25.28
2023-06-04T14:29:04.632Z,25.19
2023-06-04T14:31:50.505Z,25.08
2023-06-04T14:34:36.567Z,25.04
2023-06-04T14:37:22.728Z,25.10
2023-06-04T14:40:09.620Z,25.10
